sensor_id;sensor_type;location;lat;lon;timestamp;pressure;altitude;pressure_sealevel;temperature;humidity
55068;BME280;40965;52.368;9.712;2022-10-17T00:01:25;101291.69;;;12.94;100.00
55068;BME280;40965;52.368;9.712;2022-10-17T00:03:52;101285.59;;;12.90;100.00
55068;BME280;40965;52.368;9.712;2022-10-17T00:06:18;101277.75;;;12.85;100.00
55068;BME280;40965;52.368;9.712;2022-10-17T00:08:45;101273.41;;;12.80;100.00
55068;BME280;40965;52.368;9.712;2022-10-17T00:11:17;101279.59;;;12.74;100.00
55068;BME280;40965;52.368;9.712;2022-10-17T00:13:47;101280.50;;;12.70;100.00
55068;BME280;40965;52.368;9.712;2022-10-17T00:16:25;101268.25;;;12.66;100.00
55068;BME280;40965;52.368;9.712;2022-10-17T00:18:53;101272.66;;;12.65;100.00
55068;BME280;40965;52.368;9.712;2022-10-17T00:21:21;101282.28;;;12.63;100.00
55068;BME280;40965;52.368;9.712;2022-10-17T00:23:47;101270.94;;;12.60;100.00
55068;BME280;40965;52.368;9.712;2022-10-17T00:26:15;101268.31;;;12.61;100.00
55068;BME280;40965;52.368;9.712;2022-10-17T00:28:45;101276.19;;;12.61;100.00
55068;BME280;40965;52.368;9.712;2022-10-17T00:31:16;101261.31;;;12.60;100.00
55068;BME280;40965;52.368;9.712;2022-10-17T00:33:44;101264.81;;;12.59;100.00
55068;BME280;40965;52.368;9.712;2022-10-17T00:36:17;101261.31;;;12.60;100.00
55068;BME280;40965;52.368;9.712;2022-10-17T00:38:46;101266.56;;;12.60;100.00
55068;BME280;40965;52.368;9.712;2022-10-17T00:41:17;101270.97;;;12.58;100.00
55068;BME280;40965;52.368;9.712;2022-10-17T00:46:36;101275.34;;;12.57;100.00
55068;BME280;40965;52.368;9.712;2022-10-17T00:49:09;101273.59;;;12.58;100.00
55068;BME280;40965;52.368;9.712;2022-10-17T00:51:40;101266.59;;;12.55;100.00
55068;BME280;40965;52.368;9.712;2022-10-17T00:54:10;101264.84;;;12.54;100.00
55068;BME280;40965;52.368;9.712;2022-10-17T00:56:39;101261.38;;;12.51;100.00
55068;BME280;40965;52.368;9.712;2022-10-17T00:59:10;101266.66;;;12.49;100.00
55068;BME280;40965;52.368;9.712;2022-10-17T01:01:40;101264.91;;;12.47;100.00
55068;BME280;40965;52.368;9.712;2022-10-17T01:04:09;101264.91;;;12.47;100.00
55068;BME280;40965;52.368;9.712;2022-10-17T01:06:35;101263.16;;;12.50;100.00
55068;BME280;40965;52.368;9.712;2022-10-17T01:09:02;101259.66;;;12.47;100.00
55068;BME280;40965;52.368;9.712;2022-10-17T01:17:52;101268.44;;;12.41;100.00
55068;BME280;40965;52.368;9.712;2022-10-17T01:23:42;101258.00;;;12.33;100.00
55068;BME280;40965;52.368;9.712;2022-10-17T01:32:04;101256.28;;;12.28;100.00
55068;BME280;40965;52.368;9.712;2022-10-17T01:35:11;101255.38;;;12.33;100.00
55068;BME280;40965;52.368;9.712;2022-10-17T01:37:52;101250.97;;;12.38;100.00
55068;BME280;40965;52.368;9.712;2022-10-17T01:40:28;101256.22;;;12.40;100.00
55068;BME280;40965;52.368;9.712;2022-10-17T01:43:20;101251.81;;;12.40;100.00
55068;BME280;40965;52.368;9.712;2022-10-17T01:46:15;101250.94;;;12.41;100.00
55068;BME280;40965;52.368;9.712;2022-10-17T01:48:51;101245.72;;;12.38;100.00
55068;BME280;40965;52.368;9.712;2022-10-17T01:51:35;101252.72;;;12.38;100.00
55068;BME280;40965;52.368;9.712;2022-10-17T01:54:13;101244.84;;;12.38;100.00
55068;BME280;40965;52.368;9.712;2022-10-17T01:56:45;101248.31;;;12.43;100.00
55068;BME280;40965;52.368;9.712;2022-10-17T01:59:16;101243.91;;;12.47;100.00
55068;BME280;40965;52.368;9.712;2022-10-17T02:01:50;101237.72;;;12.52;100.00
55068;BME280;40965;52.368;9.712;2022-10-17T02:04:18;101242.97;;;12.54;100.00
55068;BME280;40965;52.368;9.712;2022-10-17T02:06:44;101234.19;;;12.58;100.00
55068;BME280;40965;52.368;9.712;2022-10-17T02:09:25;101228.06;;;12.61;100.00
55068;BME280;40965;52.368;9.712;2022-10-17T02:18:24;101221.00;;;12.63;100.00
55068;BME280;40965;52.368;9.712;2022-10-17T02:21:07;101221.88;;;12.63;100.00
55068;BME280;40965;52.368;9.712;2022-10-17T02:24:00;101214.88;;;12.64;100.00
55068;BME280;40965;52.368;9.712;2022-10-17T02:27:02;101211.38;;;12.62;100.00
55068;BME280;40965;52.368;9.712;2022-10-17T02:29:42;101213.13;;;12.63;100.00
55068;BME280;40965;52.368;9.712;2022-10-17T02:33:06;101200.84;;;12.63;100.00
55068;BME280;40965;52.368;9.712;2022-10-17T02:35:32;101200.00;;;12.63;100.00
55068;BME280;40965;52.368;9.712;2022-10-17T02:38:02;101211.38;;;12.65;100.00
55068;BME280;40965;52.368;9.712;2022-10-17T02:40:30;101203.47;;;12.66;100.00
55068;BME280;40965;52.368;9.712;2022-10-17T02:42:58;101214.00;;;12.65;100.00
55068;BME280;40965;52.368;9.712;2022-10-17T02:45:27;101208.75;;;12.65;100.00
55068;BME280;40965;52.368;9.712;2022-10-17T02:51:11;101207.78;;;12.75;100.00
55068;BME280;40965;52.368;9.712;2022-10-17T02:54:00;101211.25;;;12.80;100.00
55068;BME280;40965;52.368;9.712;2022-10-17T02:57:00;101206.81;;;12.84;100.00
55068;BME280;40965;52.368;9.712;2022-10-17T02:59:47;101206.81;;;12.82;100.00
55068;BME280;40965;52.368;9.712;2022-10-17T03:02:16;101199.81;;;12.84;100.00
55068;BME280;40965;52.368;9.712;2022-10-17T03:04:44;101198.94;;;12.84;100.00
55068;BME280;40965;52.368;9.712;2022-10-17T03:07:12;101202.44;;;12.84;100.00
55068;BME280;40965;52.368;9.712;2022-10-17T03:09:38;101207.69;;;12.84;100.00
55068;BME280;40965;52.368;9.712;2022-10-17T03:12:06;101212.94;;;12.84;100.00
55068;BME280;40965;52.368;9.712;2022-10-17T03:14:33;101211.19;;;12.85;100.00
55068;BME280;40965;52.368;9.712;2022-10-17T03:16:59;101210.34;;;12.83;100.00
55068;BME280;40965;52.368;9.712;2022-10-17T03:19:26;101206.84;;;12.81;100.00
55068;BME280;40965;52.368;9.712;2022-10-17T03:21:53;101216.50;;;12.79;100.00
55068;BME280;40965;52.368;9.712;2022-10-17T03:24:20;101200.75;;;12.77;100.00
55068;BME280;40965;52.368;9.712;2022-10-17T03:26:48;101206.00;;;12.77;100.00
55068;BME280;40965;52.368;9.712;2022-10-17T03:29:16;101199.00;;;12.76;100.00
55068;BME280;40965;52.368;9.712;2022-10-17T03:31:43;101210.38;;;12.78;100.00
55068;BME280;40965;52.368;9.712;2022-10-17T03:34:12;101204.25;;;12.78;100.00
55068;BME280;40965;52.368;9.712;2022-10-17T03:36:40;101212.13;;;12.76;100.00
55068;BME280;40965;52.368;9.712;2022-10-17T03:39:07;101211.25;;;12.77;100.00
55068;BME280;40965;52.368;9.712;2022-10-17T03:41:33;101213.91;;;12.74;100.00
55068;BME280;40965;52.368;9.712;2022-10-17T03:44:00;101207.78;;;12.72;100.00
55068;BME280;40965;52.368;9.712;2022-10-17T03:46:27;101212.22;;;12.70;100.00
55068;BME280;40965;52.368;9.712;2022-10-17T03:48:53;101208.72;;;12.66;100.00
55068;BME280;40965;52.368;9.712;2022-10-17T03:51:20;101209.56;;;12.71;100.00
55068;BME280;40965;52.368;9.712;2022-10-17T03:53:46;101210.41;;;12.72;100.00
55068;BME280;40965;52.368;9.712;2022-10-17T03:56:18;101209.59;;;12.70;100.00
55068;BME280;40965;52.368;9.712;2022-10-17T03:58:47;101213.97;;;12.66;100.00
55068;BME280;40965;52.368;9.712;2022-10-17T04:01:15;101208.75;;;12.63;100.00
55068;BME280;40965;52.368;9.712;2022-10-17T04:03:43;101209.66;;;12.61;100.00
55068;BME280;40965;52.368;9.712;2022-10-17T04:06:13;101199.16;;;12.61;100.00
55068;BME280;40965;52.368;9.712;2022-10-17T04:08:39;101205.31;;;12.55;100.00
55068;BME280;40965;52.368;9.712;2022-10-17T04:11:07;101200.09;;;12.53;100.00
55068;BME280;40965;52.368;9.712;2022-10-17T04:13:35;101207.94;;;12.55;100.00
55068;BME280;40965;52.368;9.712;2022-10-17T04:16:09;101201.84;;;12.54;100.00
55068;BME280;40965;52.368;9.712;2022-10-17T04:18:37;101210.56;;;12.55;100.00
55068;BME280;40965;52.368;9.712;2022-10-17T04:21:04;101216.72;;;12.52;100.00
55068;BME280;40965;52.368;9.712;2022-10-17T04:23:32;101213.22;;;12.52;100.00
55068;BME280;40965;52.368;9.712;2022-10-17T04:26:00;101218.50;;;12.50;100.00
55068;BME280;40965;52.368;9.712;2022-10-17T04:28:28;101217.59;;;12.54;100.00
55068;BME280;40965;52.368;9.712;2022-10-17T04:31:10;101216.72;;;12.55;100.00
55068;BME280;40965;52.368;9.712;2022-10-17T04:33:37;101214.97;;;12.54;100.00
55068;BME280;40965;52.368;9.712;2022-10-17T04:36:12;101215.81;;;12.55;100.00
55068;BME280;40965;52.368;9.712;2022-10-17T04:38:40;101217.59;;;12.54;100.00
55068;BME280;40965;52.368;9.712;2022-10-17T04:41:10;101214.97;;;12.53;100.00
55068;BME280;40965;52.368;9.712;2022-10-17T04:43:39;101211.44;;;12.54;100.00
55068;BME280;40965;52.368;9.712;2022-10-17T04:46:10;101211.44;;;12.54;100.00
55068;BME280;40965;52.368;9.712;2022-10-17T04:48:39;101214.97;;;12.53;100.00
55068;BME280;40965;52.368;9.712;2022-10-17T04:51:09;101216.72;;;12.52;100.00
55068;BME280;40965;52.368;9.712;2022-10-17T04:53:40;101222.00;;;12.49;100.00
55068;BME280;40965;52.368;9.712;2022-10-17T04:56:14;101220.28;;;12.42;100.00
55068;BME280;40965;52.368;9.712;2022-10-17T04:58:43;101220.31;;;12.40;100.00
55068;BME280;40965;52.368;9.712;2022-10-17T05:01:12;101226.44;;;12.43;100.00
55068;BME280;40965;52.368;9.712;2022-10-17T05:03:41;101227.28;;;12.43;100.00
55068;BME280;40965;52.368;9.712;2022-10-17T05:06:10;101218.56;;;12.43;100.00
55068;BME280;40965;52.368;9.712;2022-10-17T05:08:42;101215.03;;;12.44;100.00
55068;BME280;40965;52.368;9.712;2022-10-17T05:11:19;101222.91;;;12.47;100.00
55068;BME280;40965;52.368;9.712;2022-10-17T05:13:59;101215.94;;;12.43;100.00
55068;BME280;40965;52.368;9.712;2022-10-17T05:16:27;101219.44;;;12.40;100.00
55068;BME280;40965;52.368;9.712;2022-10-17T05:18:55;101227.34;;;12.35;100.00
55068;BME280;40965;52.368;9.712;2022-10-17T05:21:24;101227.41;;;12.31;100.00
55068;BME280;40965;52.368;9.712;2022-10-17T05:23:52;101233.53;;;12.28;100.00
55068;BME280;40965;52.368;9.712;2022-10-17T05:26:19;101229.16;;;12.29;100.00
55068;BME280;40965;52.368;9.712;2022-10-17T05:28:48;101226.50;;;12.35;100.00
55068;BME280;40965;52.368;9.712;2022-10-17T05:31:18;101227.25;;;12.46;100.00
55068;BME280;40965;52.368;9.712;2022-10-17T05:33:45;101226.34;;;12.53;100.00
55068;BME280;40965;52.368;9.712;2022-10-17T05:36:15;101224.50;;;12.62;100.00
55068;BME280;40965;52.368;9.712;2022-10-17T05:38:41;101223.59;;;12.66;100.00
55068;BME280;40965;52.368;9.712;2022-10-17T05:41:08;101225.34;;;12.68;100.00
55068;BME280;40965;52.368;9.712;2022-10-17T05:43:35;101221.84;;;12.68;100.00
55068;BME280;40965;52.368;9.712;2022-10-17T05:46:03;101214.78;;;12.73;100.00
55068;BME280;40965;52.368;9.712;2022-10-17T05:48:31;101218.25;;;12.78;100.00
55068;BME280;40965;52.368;9.712;2022-10-17T05:51:01;101209.44;;;12.84;100.00
55068;BME280;40965;52.368;9.712;2022-10-17T05:53:31;101212.00;;;12.90;100.00
55068;BME280;40965;52.368;9.712;2022-10-17T05:56:00;101211.97;;;12.95;100.00
55068;BME280;40965;52.368;9.712;2022-10-17T05:58:28;101218.03;;;13.01;100.00
55068;BME280;40965;52.368;9.712;2022-10-17T06:01:02;101216.25;;;13.05;100.00
55068;BME280;40965;52.368;9.712;2022-10-17T06:03:31;101216.25;;;13.03;100.00
55068;BME280;40965;52.368;9.712;2022-10-17T06:06:05;101209.16;;;13.13;100.00
55068;BME280;40965;52.368;9.712;2022-10-17T06:08:33;101212.63;;;13.15;100.00
55068;BME280;40965;52.368;9.712;2022-10-17T06:10:59;101223.97;;;13.20;100.00
55068;BME280;40965;52.368;9.712;2022-10-17T06:13:26;101216.94;;;13.22;100.00
55068;BME280;40965;52.368;9.712;2022-10-17T06:15:53;101217.78;;;13.26;100.00
55068;BME280;40965;52.368;9.712;2022-10-17T06:18:20;101223.88;;;13.28;100.00
55068;BME280;40965;52.368;9.712;2022-10-17T06:20:47;101223.88;;;13.28;100.00
55068;BME280;40965;52.368;9.712;2022-10-17T06:23:13;101229.97;;;13.33;100.00
55068;BME280;40965;52.368;9.712;2022-10-17T06:25:40;101223.81;;;13.34;100.00
55068;BME280;40965;52.368;9.712;2022-10-17T06:28:06;101225.56;;;13.37;100.00
55068;BME280;40965;52.368;9.712;2022-10-17T06:30:33;101225.53;;;13.40;100.00
55068;BME280;40965;52.368;9.712;2022-10-17T06:32:59;101236.00;;;13.45;100.00
55068;BME280;40965;52.368;9.712;2022-10-17T06:35:26;101235.97;;;13.49;100.00
55068;BME280;40965;52.368;9.712;2022-10-17T06:37:52;101237.66;;;13.53;100.00
55068;BME280;40965;52.368;9.712;2022-10-17T06:40:19;101240.19;;;13.63;100.00
55068;BME280;40965;52.368;9.712;2022-10-17T06:42:45;101248.88;;;13.69;100.00
55068;BME280;40965;52.368;9.712;2022-10-17T06:45:13;101259.31;;;13.76;100.00
55068;BME280;40965;52.368;9.712;2022-10-17T06:47:40;101260.13;;;13.82;100.00
55068;BME280;40965;52.368;9.712;2022-10-17T06:50:07;101253.88;;;13.88;100.00
55068;BME280;40965;52.368;9.712;2022-10-17T06:52:34;101266.13;;;13.94;100.00
55068;BME280;40965;52.368;9.712;2022-10-17T06:55:00;101267.75;;;14.01;100.00
55068;BME280;40965;52.368;9.712;2022-10-17T06:57:29;101258.00;;;14.07;100.00
55068;BME280;40965;52.368;9.712;2022-10-17T06:59:55;101265.75;;;14.20;100.00
55068;BME280;40965;52.368;9.712;2022-10-17T07:02:22;101276.97;;;14.34;100.00
55068;BME280;40965;52.368;9.712;2022-10-17T07:04:50;101268.06;;;14.43;100.00
55068;BME280;40965;52.368;9.712;2022-10-17T07:07:16;101271.50;;;14.47;100.00
55068;BME280;40965;52.368;9.712;2022-10-17T07:09:42;101275.84;;;14.49;100.00
55068;BME280;40965;52.368;9.712;2022-10-17T07:12:09;101275.75;;;14.55;100.00
55068;BME280;40965;52.368;9.712;2022-10-17T07:14:36;101277.41;;;14.63;100.00
55068;BME280;40965;52.368;9.712;2022-10-17T07:17:03;101281.69;;;14.71;100.00
55068;BME280;40965;52.368;9.712;2022-10-17T07:19:30;101288.50;;;14.83;100.00
55068;BME280;40965;52.368;9.712;2022-10-17T07:21:56;101289.16;;;14.98;100.00
55068;BME280;40965;52.368;9.712;2022-10-17T07:24:22;101293.31;;;15.13;100.00
55068;BME280;40965;52.368;9.712;2022-10-17T07:26:49;101291.28;;;15.27;100.00
55068;BME280;40965;52.368;9.712;2022-10-17T07:29:15;101304.25;;;15.41;100.00
55068;BME280;40965;52.368;9.712;2022-10-17T07:31:42;101294.31;;;15.54;100.00
55068;BME280;40965;52.368;9.712;2022-10-17T07:34:13;101293.13;;;15.69;100.00
55068;BME280;40965;52.368;9.712;2022-10-17T07:36:39;101296.34;;;15.85;100.00
55068;BME280;40965;52.368;9.712;2022-10-17T07:39:05;101302.22;;;15.99;100.00
55068;BME280;40965;52.368;9.712;2022-10-17T07:41:32;101294.94;;;16.11;100.00
55068;BME280;40965;52.368;9.712;2022-10-17T07:43:58;101294.72;;;16.20;100.00
55068;BME280;40965;52.368;9.712;2022-10-17T07:46:25;101293.66;;;16.29;100.00
55068;BME280;40965;52.368;9.712;2022-10-17T07:48:51;101293.50;;;16.36;100.00
55068;BME280;40965;52.368;9.712;2022-10-17T07:51:18;101296.91;;;16.42;100.00
55068;BME280;40965;52.368;9.712;2022-10-17T07:53:46;101296.78;;;16.48;100.00
55068;BME280;40965;52.368;9.712;2022-10-17T07:56:13;101295.78;;;16.52;100.00
55068;BME280;40965;52.368;9.712;2022-10-17T07:58:40;101293.03;;;16.57;100.00
55068;BME280;40965;52.368;9.712;2022-10-17T08:01:08;101296.38;;;16.63;100.00
55068;BME280;40965;52.368;9.712;2022-10-17T08:03:39;101306.78;;;16.71;100.00
55068;BME280;40965;52.368;9.712;2022-10-17T08:06:07;101304.88;;;16.76;100.00
55068;BME280;40965;52.368;9.712;2022-10-17T08:08:33;101302.94;;;16.84;100.00
55068;BME280;40965;52.368;9.712;2022-10-17T08:11:03;101307.09;;;16.96;100.00
55068;BME280;40965;52.368;9.712;2022-10-17T08:13:31;101298.91;;;17.06;100.00
55068;BME280;40965;52.368;9.712;2022-10-17T08:16:02;101305.72;;;17.16;100.00
55068;BME280;40965;52.368;9.712;2022-10-17T08:18:31;101300.19;;;17.25;100.00
55068;BME280;40965;52.368;9.712;2022-10-17T08:20:59;101306.06;;;17.36;100.00
55068;BME280;40965;52.368;9.712;2022-10-17T08:23:27;101303.13;;;17.47;100.00
55068;BME280;40965;52.368;9.712;2022-10-17T08:25:58;101296.56;;;17.61;100.00
55068;BME280;40965;52.368;9.712;2022-10-17T08:28:25;101300.69;;;17.71;100.00
55068;BME280;40965;52.368;9.712;2022-10-17T08:30:52;101303.97;;;17.79;100.00
55068;BME280;40965;52.368;9.712;2022-10-17T08:33:19;101304.63;;;17.88;100.00
55068;BME280;40965;52.368;9.712;2022-10-17T08:35:45;101300.09;;;17.91;99.90
55068;BME280;40965;52.368;9.712;2022-10-17T08:38:12;101306.88;;;18.03;99.61
55068;BME280;40965;52.368;9.712;2022-10-17T08:40:40;101295.09;;;18.13;97.93
55068;BME280;40965;52.368;9.712;2022-10-17T08:43:17;101292.97;;;18.25;97.58
55068;BME280;40965;52.368;9.712;2022-10-17T08:45:57;101296.09;;;18.38;95.59
55068;BME280;40965;52.368;9.712;2022-10-17T08:48:29;101299.38;;;18.46;94.05
55068;BME280;40965;52.368;9.712;2022-10-17T08:51:02;101295.72;;;18.50;94.23
55068;BME280;40965;52.368;9.712;2022-10-17T08:53:37;101292.06;;;18.54;92.44
55068;BME280;40965;52.368;9.712;2022-10-17T08:56:18;101299.72;;;18.63;92.40
55068;BME280;40965;52.368;9.712;2022-10-17T08:58:48;101284.47;;;18.70;90.77
55068;BME280;40965;52.368;9.712;2022-10-17T09:01:50;101283.59;;;18.70;90.56
55068;BME280;40965;52.368;9.712;2022-10-17T09:07:59;101273.75;;;18.73;90.58
55068;BME280;40965;52.368;9.712;2022-10-17T09:10:45;101273.59;;;18.78;91.13
55068;BME280;40965;52.368;9.712;2022-10-17T09:18:58;101278.59;;;18.87;90.37
55068;BME280;40965;52.368;9.712;2022-10-17T09:22:09;101283.78;;;18.92;89.31
55068;BME280;40965;52.368;9.712;2022-10-17T09:24:52;101282.75;;;18.96;89.29
55068;BME280;40965;52.368;9.712;2022-10-17T09:27:30;101274.75;;;18.97;89.78
55068;BME280;40965;52.368;9.712;2022-10-17T09:30:32;101279.72;;;19.07;88.34
55068;BME280;40965;52.368;9.712;2022-10-17T09:33:24;101281.47;;;19.08;88.61
55068;BME280;40965;52.368;9.712;2022-10-17T09:35:53;101294.63;;;19.11;87.64
55068;BME280;40965;52.368;9.712;2022-10-17T09:38:27;101292.78;;;19.13;87.62
55068;BME280;40965;52.368;9.712;2022-10-17T09:41:06;101308.28;;;19.25;86.80
55068;BME280;40965;52.368;9.712;2022-10-17T09:43:40;101300.88;;;19.35;86.37
55068;BME280;40965;52.368;9.712;2022-10-17T09:46:16;101298.66;;;19.48;85.36
55068;BME280;40965;52.368;9.712;2022-10-17T09:49:05;101298.19;;;19.60;84.30
55068;BME280;40965;52.368;9.712;2022-10-17T09:51:38;101302.19;;;19.72;84.25
55068;BME280;40965;52.368;9.712;2022-10-17T09:54:19;101301.91;;;19.80;82.94
55068;BME280;40965;52.368;9.712;2022-10-17T09:57:06;101309.34;;;19.95;83.17
55068;BME280;40965;52.368;9.712;2022-10-17T09:59:43;101307.94;;;20.09;82.12
55068;BME280;40965;52.368;9.712;2022-10-17T10:04:52;101296.72;;;20.24;80.62
55068;BME280;40965;52.368;9.712;2022-10-17T10:07:20;101304.63;;;20.26;81.70
55068;BME280;40965;52.368;9.712;2022-10-17T10:09:48;101300.00;;;20.31;81.21
55068;BME280;40965;52.368;9.712;2022-10-17T10:12:27;101301.50;;;20.38;80.53
55068;BME280;40965;52.368;9.712;2022-10-17T10:14:58;101296.41;;;20.54;80.13
55068;BME280;40965;52.368;9.712;2022-10-17T10:19:59;101301.81;;;20.75;78.50
55068;BME280;40965;52.368;9.712;2022-10-17T10:23:17;101301.03;;;20.93;77.42
55068;BME280;40965;52.368;9.712;2022-10-17T10:26:02;101295.47;;;20.99;76.37
55068;BME280;40965;52.368;9.712;2022-10-17T10:28:32;101300.47;;;21.07;76.46
55068;BME280;40965;52.368;9.712;2022-10-17T10:31:03;101308.47;;;21.07;76.20
55068;BME280;40965;52.368;9.712;2022-10-17T10:33:35;101309.31;;;21.08;76.00
55068;BME280;40965;52.368;9.712;2022-10-17T10:36:07;101300.06;;;21.17;76.44
55068;BME280;40965;52.368;9.712;2022-10-17T10:38:34;101300.16;;;21.36;75.63
55068;BME280;40965;52.368;9.712;2022-10-17T10:41:06;101301.59;;;21.43;74.58
55068;BME280;40965;52.368;9.712;2022-10-17T10:43:37;101289.28;;;21.40;74.09
55068;BME280;40965;52.368;9.712;2022-10-17T10:46:22;101291.88;;;21.42;74.29
55068;BME280;40965;52.368;9.712;2022-10-17T10:48:56;101293.50;;;21.46;74.14
55068;BME280;40965;52.368;9.712;2022-10-17T10:51:44;101297.66;;;21.52;74.01
55068;BME280;40965;52.368;9.712;2022-10-17T10:54:17;101283.88;;;21.62;72.73
55068;BME280;40965;52.368;9.712;2022-10-17T10:56:49;101289.38;;;21.59;73.11
55068;BME280;40965;52.368;9.712;2022-10-17T10:59:36;101294.88;;;21.55;72.27
55068;BME280;40965;52.368;9.712;2022-10-17T11:04:51;101302.06;;;21.53;72.93
55068;BME280;40965;52.368;9.712;2022-10-17T11:10:38;101298.53;;;21.73;71.54
55068;BME280;40965;52.368;9.712;2022-10-17T11:13:14;101298.91;;;21.84;71.78
55068;BME280;40965;52.368;9.712;2022-10-17T11:16:03;101293.06;;;21.95;69.51
55068;BME280;40965;52.368;9.712;2022-10-17T11:19:10;101285.63;;;22.02;67.49
55068;BME280;40965;52.368;9.712;2022-10-17T11:24:49;101295.88;;;21.92;66.90
55068;BME280;40965;52.368;9.712;2022-10-17T11:27:22;101298.75;;;21.87;67.28
55068;BME280;40965;52.368;9.712;2022-10-17T11:29:49;101307.16;;;21.78;67.52
55068;BME280;40965;52.368;9.712;2022-10-17T11:32:27;101311.19;;;21.68;67.60
55068;BME280;40965;52.368;9.712;2022-10-17T11:38:17;101306.59;;;21.51;67.62
55068;BME280;40965;52.368;9.712;2022-10-17T11:41:01;101304.00;;;21.49;67.65
55068;BME280;40965;52.368;9.712;2022-10-17T11:43:41;101301.41;;;21.47;66.98
55068;BME280;40965;52.368;9.712;2022-10-17T11:46:25;101305.13;;;21.43;67.90
55068;BME280;40965;52.368;9.712;2022-10-17T11:49:10;101305.91;;;21.45;67.95
55068;BME280;40965;52.368;9.712;2022-10-17T11:51:54;101306.50;;;21.52;67.51
55068;BME280;40965;52.368;9.712;2022-10-17T11:54:32;101302.84;;;21.56;67.75
55068;BME280;40965;52.368;9.712;2022-10-17T12:00:09;101317.50;;;21.65;66.84
55068;BME280;40965;52.368;9.712;2022-10-17T12:03:17;101314.34;;;21.57;67.17
55068;BME280;40965;52.368;9.712;2022-10-17T12:05:53;101332.06;;;21.58;67.04
55068;BME280;40965;52.368;9.712;2022-10-17T12:09:08;101323.25;;;21.56;67.13
55068;BME280;40965;52.368;9.712;2022-10-17T12:11:49;101318.84;;;21.55;67.42
55068;BME280;40965;52.368;9.712;2022-10-17T12:14:33;101330.44;;;21.54;67.64
55068;BME280;40965;52.368;9.712;2022-10-17T12:17:31;101324.22;;;21.53;67.14
55068;BME280;40965;52.368;9.712;2022-10-17T12:22:49;101324.38;;;21.50;67.75
55068;BME280;40965;52.368;9.712;2022-10-17T12:25:37;101340.44;;;21.48;67.80
55068;BME280;40965;52.368;9.712;2022-10-17T12:28:27;101334.00;;;21.54;67.54
55068;BME280;40965;52.368;9.712;2022-10-17T12:34:00;101345.88;;;21.45;67.94
55068;BME280;40965;52.368;9.712;2022-10-17T12:49:47;101353.13;;;21.83;65.58
55068;BME280;40965;52.368;9.712;2022-10-17T12:52:17;101362.72;;;21.87;65.58
55068;BME280;40965;52.368;9.712;2022-10-17T12:57:43;101364.03;;;21.97;65.24
55068;BME280;40965;52.368;9.712;2022-10-17T13:00:18;101373.03;;;21.95;65.35
55068;BME280;40965;52.368;9.712;2022-10-17T13:03:05;101376.69;;;21.92;65.33
55068;BME280;40965;52.368;9.712;2022-10-17T13:05:40;101380.53;;;21.87;65.42
55068;BME280;40965;52.368;9.712;2022-10-17T13:08:17;101393.38;;;21.77;66.22
55068;BME280;40965;52.368;9.712;2022-10-17T13:10:48;101389.28;;;21.70;66.81
55068;BME280;40965;52.368;9.712;2022-10-17T13:13:35;101395.53;;;21.69;66.89
55068;BME280;40965;52.368;9.712;2022-10-17T13:16:04;101395.66;;;21.66;67.29
55068;BME280;40965;52.368;9.712;2022-10-17T13:18:31;101397.44;;;21.65;67.50
55068;BME280;40965;52.368;9.712;2022-10-17T13:21:12;101383.59;;;21.57;67.97
55068;BME280;40965;52.368;9.712;2022-10-17T13:23:40;101391.75;;;21.52;68.24
55068;BME280;40965;52.368;9.712;2022-10-17T13:29:05;101387.81;;;21.40;69.54
55068;BME280;40965;52.368;9.712;2022-10-17T13:31:38;101390.47;;;21.40;69.60
55068;BME280;40965;52.368;9.712;2022-10-17T13:34:15;101385.97;;;21.42;69.78
55068;BME280;40965;52.368;9.712;2022-10-17T13:36:47;101387.72;;;21.43;70.17
55068;BME280;40965;52.368;9.712;2022-10-17T13:39:23;101388.63;;;21.42;70.21
55068;BME280;40965;52.368;9.712;2022-10-17T13:41:55;101398.28;;;21.45;70.42
55068;BME280;40965;52.368;9.712;2022-10-17T13:44:25;101395.81;;;21.40;70.57
55068;BME280;40965;52.368;9.712;2022-10-17T13:46:54;101396.88;;;21.36;71.33
55068;BME280;40965;52.368;9.712;2022-10-17T13:49:36;101405.13;;;21.30;71.45
55068;BME280;40965;52.368;9.712;2022-10-17T13:52:15;101416.22;;;21.19;72.16
55068;BME280;40965;52.368;9.712;2022-10-17T13:54:46;101413.88;;;21.11;72.63
55068;BME280;40965;52.368;9.712;2022-10-17T13:57:27;101407.81;;;21.08;73.05
55068;BME280;40965;52.368;9.712;2022-10-17T14:00:17;101407.88;;;21.06;73.27
55068;BME280;40965;52.368;9.712;2022-10-17T14:02:44;101412.44;;;21.03;73.54
55068;BME280;40965;52.368;9.712;2022-10-17T14:05:15;101402.00;;;20.98;74.02
55068;BME280;40965;52.368;9.712;2022-10-17T14:07:55;101412.66;;;20.98;74.06
55068;BME280;40965;52.368;9.712;2022-10-17T14:10:35;101418.97;;;20.95;74.13
55068;BME280;40965;52.368;9.712;2022-10-17T14:13:04;101416.38;;;20.94;74.55
55068;BME280;40965;52.368;9.712;2022-10-17T14:15:34;101416.47;;;20.91;74.60
55068;BME280;40965;52.368;9.712;2022-10-17T14:18:06;101421.81;;;20.91;74.71
55068;BME280;40965;52.368;9.712;2022-10-17T14:20:36;101416.47;;;20.91;75.10
55068;BME280;40965;52.368;9.712;2022-10-17T14:23:02;101414.75;;;20.90;75.05
55068;BME280;40965;52.368;9.712;2022-10-17T14:25:33;101418.34;;;20.89;75.12
55068;BME280;40965;52.368;9.712;2022-10-17T14:33:43;101428.78;;;20.93;75.54
55068;BME280;40965;52.368;9.712;2022-10-17T14:36:12;101421.00;;;20.89;75.72
55068;BME280;40965;52.368;9.712;2022-10-17T14:38:47;101433.44;;;20.88;75.98
55068;BME280;40965;52.368;9.712;2022-10-17T14:41:24;101436.22;;;20.85;76.13